Kilauea, HI (96754)

7:58 AM HST on December 18, 2014 (GMT -1000)
North Shore of Kauai | Change Station
CLOSE
Current Station
Personal Weather Station
Location: Princeville, HI
Elevation: 200 ft
Nearby Weather Stations

Elev 200 ft 22.23 °N, 159.48 °W | Updated 3 seconds ago

Overcast
Overcast
68.1 °F
Feels Like 68.1 °F
N
5.8
Wind Variable Wind from SE
Gusts 9.4 mph

Today
High -- | Low -- °F
--% Chance of Precip.
Yesterday
High -- | Low -- °F
Precip. -- in
7:11 AM 5:57 PM
Waning Crescent, 13% visible
Pressure 30.19 in
Visibility 10.0 miles
Clouds Few 2100 ft
Scattered Clouds 3500 ft
Overcast 6500 ft
Dew Point 64 °F
Humidity 87%
Rainfall 0.17 in
Snow Depth Not available.
UV 0 out of 12
Pollen Not available.
Air Quality Not available.
Flu Activity Not available.
METAR PHLI 181753Z 06017KT 10SM FEW021 SCT035 OVC065 24/19 A3020 RMK AO2 SLP222 60002 T02440194 10244 20217 53007

More Conditions Fewer Conditions

Pressure 30.19 in
Visibility 10.0 miles
Clouds Few 2100 ft
Scattered Clouds 3500 ft
Overcast 6500 ft
Dew Point 64 °F
Humidity 87%
Rainfall 0.17 in
Snow Depth Not available.
UV 0 out of 12
Pollen Not available.
Air Quality Not available.
Flu Activity Not available.
METAR PHLI 181753Z 06017KT 10SM FEW021 SCT035 OVC065 24/19 A3020 RMK AO2 SLP222 60002 T02440194 10244 20217 53007

More Conditions Fewer Conditions

10-Day Weather Forecast

Almanac

Astronomy

Dec. 18, 2014 Rise Set
Actual Time
Civil Twilight
Nautical Twilight
Astronomical Twilight
Moon
Length of Visible Light
Length of Day
Tomorrow will be .
, % of the Moon is Illuminated

Today's Extremes

State Highs State Lows

Community

WunderPhotos

Upload Photos

1,778,969 photos uploaded!

WunderBlogs® & News

Nearby

Air Quality

  Air Quality AQ Index Pollutant
Not available.

Snow Depth

Station Depth Elevation

Earthquake Activity

City Distance Mag. Time & Date
Minimum magnitude displayed is 2.5.

Coastal Water Temperatures

Place Temperature

Nearby Weather Stations